sensor_id;sensor_type;location;lat;lon;timestamp;temperature;humidity
41628;DHT22;27321;50.816;6.054;2023-06-04T00:00:44;16.50;49.80
41628;DHT22;27321;50.816;6.054;2023-06-04T00:03:45;16.50;49.70
41628;DHT22;27321;50.816;6.054;2023-06-04T00:06:46;16.40;49.60
41628;DHT22;27321;50.816;6.054;2023-06-04T00:09:47;16.30;50.00
41628;DHT22;27321;50.816;6.054;2023-06-04T00:12:48;16.30;50.00
41628;DHT22;27321;50.816;6.054;2023-06-04T00:15:49;16.30;50.20
41628;DHT22;27321;50.816;6.054;2023-06-04T00:18:51;16.30;50.20
41628;DHT22;27321;50.816;6.054;2023-06-04T00:21:52;16.20;50.10
41628;DHT22;27321;50.816;6.054;2023-06-04T00:24:53;16.20;50.10
41628;DHT22;27321;50.816;6.054;2023-06-04T00:27:54;16.10;50.50
41628;DHT22;27321;50.816;6.054;2023-06-04T00:30:55;16.10;50.70
41628;DHT22;27321;50.816;6.054;2023-06-04T00:33:56;16.10;50.90
41628;DHT22;27321;50.816;6.054;2023-06-04T00:36:57;16.00;51.00
41628;DHT22;27321;50.816;6.054;2023-06-04T00:39:59;16.00;51.30
41628;DHT22;27321;50.816;6.054;2023-06-04T00:43:00;16.00;51.50
41628;DHT22;27321;50.816;6.054;2023-06-04T00:46:02;16.00;51.80
41628;DHT22;27321;50.816;6.054;2023-06-04T00:49:06;15.90;51.70
41628;DHT22;27321;50.816;6.054;2023-06-04T00:52:14;15.90;51.90
41628;DHT22;27321;50.816;6.054;2023-06-04T00:55:16;15.80;52.10
41628;DHT22;27321;50.816;6.054;2023-06-04T00:58:20;15.80;52.20
41628;DHT22;27321;50.816;6.054;2023-06-04T01:01:38;15.80;52.30
41628;DHT22;27321;50.816;6.054;2023-06-04T01:04:54;15.70;52.30
41628;DHT22;27321;50.816;6.054;2023-06-04T01:08:15;15.70;52.30
41628;DHT22;27321;50.816;6.054;2023-06-04T01:11:16;15.70;52.20
41628;DHT22;27321;50.816;6.054;2023-06-04T01:14:17;15.60;52.20
41628;DHT22;27321;50.816;6.054;2023-06-04T01:17:34;15.60;52.00
41628;DHT22;27321;50.816;6.054;2023-06-04T01:20:41;15.50;52.30
41628;DHT22;27321;50.816;6.054;2023-06-04T01:23:49;15.50;52.30
41628;DHT22;27321;50.816;6.054;2023-06-04T01:26:59;15.50;52.50
41628;DHT22;27321;50.816;6.054;2023-06-04T01:30:01;15.40;52.70
41628;DHT22;27321;50.816;6.054;2023-06-04T01:33:03;15.40;52.90
41628;DHT22;27321;50.816;6.054;2023-06-04T01:36:04;15.30;53.00
41628;DHT22;27321;50.816;6.054;2023-06-04T01:39:07;15.30;53.10
41628;DHT22;27321;50.816;6.054;2023-06-04T01:42:08;15.30;53.10
41628;DHT22;27321;50.816;6.054;2023-06-04T01:45:09;15.20;53.20
41628;DHT22;27321;50.816;6.054;2023-06-04T01:48:10;15.20;53.40
41628;DHT22;27321;50.816;6.054;2023-06-04T01:51:12;15.10;53.30
41628;DHT22;27321;50.816;6.054;2023-06-04T01:54:12;15.10;53.50
41628;DHT22;27321;50.816;6.054;2023-06-04T01:57:14;15.10;53.40
41628;DHT22;27321;50.816;6.054;2023-06-04T02:00:15;15.10;53.40
41628;DHT22;27321;50.816;6.054;2023-06-04T02:03:17;15.00;53.60
41628;DHT22;27321;50.816;6.054;2023-06-04T02:06:18;15.00;54.00
41628;DHT22;27321;50.816;6.054;2023-06-04T02:09:19;15.00;54.00
41628;DHT22;27321;50.816;6.054;2023-06-04T02:12:21;14.90;53.90
41628;DHT22;27321;50.816;6.054;2023-06-04T02:15:23;14.80;54.10
41628;DHT22;27321;50.816;6.054;2023-06-04T02:18:24;14.80;54.20
41628;DHT22;27321;50.816;6.054;2023-06-04T02:21:25;14.70;53.80
41628;DHT22;27321;50.816;6.054;2023-06-04T02:24:27;14.60;54.70
41628;DHT22;27321;50.816;6.054;2023-06-04T02:27:27;14.60;55.10
41628;DHT22;27321;50.816;6.054;2023-06-04T02:30:29;14.50;55.40
41628;DHT22;27321;50.816;6.054;2023-06-04T02:33:30;14.50;55.50
41628;DHT22;27321;50.816;6.054;2023-06-04T02:36:31;14.50;55.40
41628;DHT22;27321;50.816;6.054;2023-06-04T02:39:32;14.50;55.30
41628;DHT22;27321;50.816;6.054;2023-06-04T02:42:33;14.50;55.30
41628;DHT22;27321;50.816;6.054;2023-06-04T02:45:34;14.50;55.20
41628;DHT22;27321;50.816;6.054;2023-06-04T02:48:35;14.40;55.20
41628;DHT22;27321;50.816;6.054;2023-06-04T02:51:36;14.40;55.40
41628;DHT22;27321;50.816;6.054;2023-06-04T02:54:37;14.40;55.00
41628;DHT22;27321;50.816;6.054;2023-06-04T02:57:42;14.30;55.20
41628;DHT22;27321;50.816;6.054;2023-06-04T03:00:43;14.30;55.20
41628;DHT22;27321;50.816;6.054;2023-06-04T03:03:45;14.20;55.10
41628;DHT22;27321;50.816;6.054;2023-06-04T03:06:46;14.20;55.40
41628;DHT22;27321;50.816;6.054;2023-06-04T03:09:50;14.20;55.60
41628;DHT22;27321;50.816;6.054;2023-06-04T03:12:51;14.20;55.60
41628;DHT22;27321;50.816;6.054;2023-06-04T03:15:52;14.20;55.90
41628;DHT22;27321;50.816;6.054;2023-06-04T03:18:55;14.20;55.90
41628;DHT22;27321;50.816;6.054;2023-06-04T03:21:57;14.10;55.90
41628;DHT22;27321;50.816;6.054;2023-06-04T03:25:02;14.10;56.00
41628;DHT22;27321;50.816;6.054;2023-06-04T03:28:04;14.10;56.10
41628;DHT22;27321;50.816;6.054;2023-06-04T03:31:05;14.00;56.30
41628;DHT22;27321;50.816;6.054;2023-06-04T03:34:06;14.00;56.60
41628;DHT22;27321;50.816;6.054;2023-06-04T03:37:07;13.90;56.90
41628;DHT22;27321;50.816;6.054;2023-06-04T03:40:08;13.80;56.60
41628;DHT22;27321;50.816;6.054;2023-06-04T03:43:13;13.90;56.40
41628;DHT22;27321;50.816;6.054;2023-06-04T03:46:14;13.80;56.50
41628;DHT22;27321;50.816;6.054;2023-06-04T03:49:15;13.80;56.50
41628;DHT22;27321;50.816;6.054;2023-06-04T03:52:19;13.90;56.40
41628;DHT22;27321;50.816;6.054;2023-06-04T03:55:20;13.80;56.30
41628;DHT22;27321;50.816;6.054;2023-06-04T03:58:23;13.80;56.40
41628;DHT22;27321;50.816;6.054;2023-06-04T04:01:25;13.80;56.50
41628;DHT22;27321;50.816;6.054;2023-06-04T04:04:27;13.80;56.60
41628;DHT22;27321;50.816;6.054;2023-06-04T04:07:28;13.80;56.70
41628;DHT22;27321;50.816;6.054;2023-06-04T04:10:29;13.80;56.70
41628;DHT22;27321;50.816;6.054;2023-06-04T04:13:30;13.80;56.80
41628;DHT22;27321;50.816;6.054;2023-06-04T04:16:31;13.90;56.80
41628;DHT22;27321;50.816;6.054;2023-06-04T04:19:32;13.90;57.10
41628;DHT22;27321;50.816;6.054;2023-06-04T04:22:34;13.80;57.00
41628;DHT22;27321;50.816;6.054;2023-06-04T04:25:35;13.80;57.10
41628;DHT22;27321;50.816;6.054;2023-06-04T04:28:38;13.80;57.30
41628;DHT22;27321;50.816;6.054;2023-06-04T04:31:39;13.80;57.40
41628;DHT22;27321;50.816;6.054;2023-06-04T04:34:51;13.80;57.80
41628;DHT22;27321;50.816;6.054;2023-06-04T04:37:55;13.80;58.10
41628;DHT22;27321;50.816;6.054;2023-06-04T04:40:57;13.80;58.20
41628;DHT22;27321;50.816;6.054;2023-06-04T04:44:04;13.90;58.40
41628;DHT22;27321;50.816;6.054;2023-06-04T04:47:06;14.00;58.40
41628;DHT22;27321;50.816;6.054;2023-06-04T04:50:07;14.10;58.50
41628;DHT22;27321;50.816;6.054;2023-06-04T04:53:08;14.20;58.20
41628;DHT22;27321;50.816;6.054;2023-06-04T04:56:11;14.20;58.00
41628;DHT22;27321;50.816;6.054;2023-06-04T04:59:17;14.20;57.90
41628;DHT22;27321;50.816;6.054;2023-06-04T05:02:18;14.30;58.20
41628;DHT22;27321;50.816;6.054;2023-06-04T05:05:20;14.30;58.20
41628;DHT22;27321;50.816;6.054;2023-06-04T05:08:22;14.40;57.00
41628;DHT22;27321;50.816;6.054;2023-06-04T05:11:23;14.40;55.50
41628;DHT22;27321;50.816;6.054;2023-06-04T05:14:24;14.50;55.40
41628;DHT22;27321;50.816;6.054;2023-06-04T05:17:25;14.60;54.60
41628;DHT22;27321;50.816;6.054;2023-06-04T05:20:32;14.60;52.30
41628;DHT22;27321;50.816;6.054;2023-06-04T05:23:34;14.80;52.80
41628;DHT22;27321;50.816;6.054;2023-06-04T05:26:37;14.80;52.50
41628;DHT22;27321;50.816;6.054;2023-06-04T05:29:46;14.90;53.40
41628;DHT22;27321;50.816;6.054;2023-06-04T05:32:47;15.00;53.50
41628;DHT22;27321;50.816;6.054;2023-06-04T05:35:51;15.10;53.00
41628;DHT22;27321;50.816;6.054;2023-06-04T05:38:54;15.10;51.80
41628;DHT22;27321;50.816;6.054;2023-06-04T05:42:00;15.20;51.50
41628;DHT22;27321;50.816;6.054;2023-06-04T05:45:01;15.20;51.20
41628;DHT22;27321;50.816;6.054;2023-06-04T05:48:03;15.30;51.10
41628;DHT22;27321;50.816;6.054;2023-06-04T05:51:05;15.30;50.80
41628;DHT22;27321;50.816;6.054;2023-06-04T05:54:07;15.30;51.00
41628;DHT22;27321;50.816;6.054;2023-06-04T05:57:11;15.30;50.60
41628;DHT22;27321;50.816;6.054;2023-06-04T06:00:12;15.40;50.90
41628;DHT22;27321;50.816;6.054;2023-06-04T06:03:17;15.40;50.70
41628;DHT22;27321;50.816;6.054;2023-06-04T06:06:21;15.40;50.20
41628;DHT22;27321;50.816;6.054;2023-06-04T06:09:22;15.40;49.80
41628;DHT22;27321;50.816;6.054;2023-06-04T06:12:23;15.60;50.60
41628;DHT22;27321;50.816;6.054;2023-06-04T06:15:24;15.50;50.10
41628;DHT22;27321;50.816;6.054;2023-06-04T06:18:25;15.60;51.00
41628;DHT22;27321;50.816;6.054;2023-06-04T06:21:27;15.60;51.30
41628;DHT22;27321;50.816;6.054;2023-06-04T06:24:29;15.70;50.50
41628;DHT22;27321;50.816;6.054;2023-06-04T06:27:30;15.70;50.60
41628;DHT22;27321;50.816;6.054;2023-06-04T06:30:32;15.70;50.00
41628;DHT22;27321;50.816;6.054;2023-06-04T06:33:33;15.70;50.40
41628;DHT22;27321;50.816;6.054;2023-06-04T06:36:33;15.70;50.50
41628;DHT22;27321;50.816;6.054;2023-06-04T06:39:34;15.80;50.70
41628;DHT22;27321;50.816;6.054;2023-06-04T06:42:35;15.80;50.40
41628;DHT22;27321;50.816;6.054;2023-06-04T06:45:37;15.80;50.00
41628;DHT22;27321;50.816;6.054;2023-06-04T06:48:38;15.90;50.40
41628;DHT22;27321;50.816;6.054;2023-06-04T06:51:39;16.00;50.30
41628;DHT22;27321;50.816;6.054;2023-06-04T06:54:40;16.00;49.50
41628;DHT22;27321;50.816;6.054;2023-06-04T06:57:41;16.10;50.60
41628;DHT22;27321;50.816;6.054;2023-06-04T07:00:42;16.10;50.00
41628;DHT22;27321;50.816;6.054;2023-06-04T07:03:43;16.20;50.30
41628;DHT22;27321;50.816;6.054;2023-06-04T07:06:44;16.30;48.30
41628;DHT22;27321;50.816;6.054;2023-06-04T07:09:45;16.30;48.00
41628;DHT22;27321;50.816;6.054;2023-06-04T07:12:46;16.20;47.00
41628;DHT22;27321;50.816;6.054;2023-06-04T07:15:47;16.20;47.40
41628;DHT22;27321;50.816;6.054;2023-06-04T07:18:48;16.20;48.10
41628;DHT22;27321;50.816;6.054;2023-06-04T07:21:53;16.40;48.50
41628;DHT22;27321;50.816;6.054;2023-06-04T07:24:56;16.50;48.40
41628;DHT22;27321;50.816;6.054;2023-06-04T07:27:56;16.60;47.20
41628;DHT22;27321;50.816;6.054;2023-06-04T07:31:04;16.60;48.30
41628;DHT22;27321;50.816;6.054;2023-06-04T07:34:05;16.80;48.30
41628;DHT22;27321;50.816;6.054;2023-06-04T07:37:06;16.90;47.90
41628;DHT22;27321;50.816;6.054;2023-06-04T07:40:08;16.90;47.80
41628;DHT22;27321;50.816;6.054;2023-06-04T07:43:10;17.00;46.70
41628;DHT22;27321;50.816;6.054;2023-06-04T07:46:11;17.00;46.70
41628;DHT22;27321;50.816;6.054;2023-06-04T07:49:12;17.10;47.30
41628;DHT22;27321;50.816;6.054;2023-06-04T07:52:13;17.10;46.90
41628;DHT22;27321;50.816;6.054;2023-06-04T07:55:15;17.10;47.00
41628;DHT22;27321;50.816;6.054;2023-06-04T07:58:16;17.10;47.50
41628;DHT22;27321;50.816;6.054;2023-06-04T08:01:17;17.10;47.70
41628;DHT22;27321;50.816;6.054;2023-06-04T08:04:18;17.20;48.00
41628;DHT22;27321;50.816;6.054;2023-06-04T08:07:19;17.20;48.20
41628;DHT22;27321;50.816;6.054;2023-06-04T08:10:20;17.30;47.60
41628;DHT22;27321;50.816;6.054;2023-06-04T08:13:24;17.40;47.50
41628;DHT22;27321;50.816;6.054;2023-06-04T08:16:25;17.50;47.90
41628;DHT22;27321;50.816;6.054;2023-06-04T08:19:46;17.50;47.00
41628;DHT22;27321;50.816;6.054;2023-06-04T08:22:52;17.60;46.00
41628;DHT22;27321;50.816;6.054;2023-06-04T08:26:00;17.70;47.30
41628;DHT22;27321;50.816;6.054;2023-06-04T08:29:15;17.80;47.50
41628;DHT22;27321;50.816;6.054;2023-06-04T08:32:20;17.90;45.20
41628;DHT22;27321;50.816;6.054;2023-06-04T08:35:24;18.00;45.30
41628;DHT22;27321;50.816;6.054;2023-06-04T08:38:25;18.10;44.70
41628;DHT22;27321;50.816;6.054;2023-06-04T08:41:34;18.10;43.10
41628;DHT22;27321;50.816;6.054;2023-06-04T08:44:43;18.10;44.30
41628;DHT22;27321;50.816;6.054;2023-06-04T08:47:48;18.20;45.40
41628;DHT22;27321;50.816;6.054;2023-06-04T08:50:51;18.30;45.00
41628;DHT22;27321;50.816;6.054;2023-06-04T08:53:52;18.40;45.50
41628;DHT22;27321;50.816;6.054;2023-06-04T08:56:56;18.40;43.80
41628;DHT22;27321;50.816;6.054;2023-06-04T08:59:58;18.50;42.40
41628;DHT22;27321;50.816;6.054;2023-06-04T09:03:02;18.50;43.30
41628;DHT22;27321;50.816;6.054;2023-06-04T09:06:06;18.60;43.50
41628;DHT22;27321;50.816;6.054;2023-06-04T09:09:09;18.70;43.30
41628;DHT22;27321;50.816;6.054;2023-06-04T09:12:20;18.70;42.20
41628;DHT22;27321;50.816;6.054;2023-06-04T09:15:23;18.80;41.60
41628;DHT22;27321;50.816;6.054;2023-06-04T09:18:25;18.90;41.70
41628;DHT22;27321;50.816;6.054;2023-06-04T09:21:26;19.00;41.30
41628;DHT22;27321;50.816;6.054;2023-06-04T09:24:45;19.00;41.90
41628;DHT22;27321;50.816;6.054;2023-06-04T09:27:48;19.10;40.40
41628;DHT22;27321;50.816;6.054;2023-06-04T09:30:53;19.10;41.90
41628;DHT22;27321;50.816;6.054;2023-06-04T09:33:54;19.20;41.90
41628;DHT22;27321;50.816;6.054;2023-06-04T09:36:55;19.30;43.90
41628;DHT22;27321;50.816;6.054;2023-06-04T09:39:57;19.40;43.00
41628;DHT22;27321;50.816;6.054;2023-06-04T09:42:58;19.50;41.00
41628;DHT22;27321;50.816;6.054;2023-06-04T09:46:18;19.60;42.10
41628;DHT22;27321;50.816;6.054;2023-06-04T09:49:19;19.50;39.30
41628;DHT22;27321;50.816;6.054;2023-06-04T09:52:20;19.60;38.90
41628;DHT22;27321;50.816;6.054;2023-06-04T09:55:22;19.60;39.90
41628;DHT22;27321;50.816;6.054;2023-06-04T09:58:26;19.70;41.10
41628;DHT22;27321;50.816;6.054;2023-06-04T10:01:29;19.80;40.40
41628;DHT22;27321;50.816;6.054;2023-06-04T10:04:32;19.80;41.80
41628;DHT22;27321;50.816;6.054;2023-06-04T10:07:35;19.90;40.10
41628;DHT22;27321;50.816;6.054;2023-06-04T10:10:38;19.90;39.40
41628;DHT22;27321;50.816;6.054;2023-06-04T10:13:53;19.90;37.40
41628;DHT22;27321;50.816;6.054;2023-06-04T10:16:58;20.00;39.60
41628;DHT22;27321;50.816;6.054;2023-06-04T10:20:01;20.00;38.50
41628;DHT22;27321;50.816;6.054;2023-06-04T10:23:06;20.10;36.00
41628;DHT22;27321;50.816;6.054;2023-06-04T10:26:14;20.10;35.40
41628;DHT22;27321;50.816;6.054;2023-06-04T10:29:19;20.10;35.60
41628;DHT22;27321;50.816;6.054;2023-06-04T10:32:21;20.20;35.50
41628;DHT22;27321;50.816;6.054;2023-06-04T10:35:33;20.20;36.60
41628;DHT22;27321;50.816;6.054;2023-06-04T10:41:58;20.40;34.40
41628;DHT22;27321;50.816;6.054;2023-06-04T10:45:00;20.40;34.70
41628;DHT22;27321;50.816;6.054;2023-06-04T10:48:05;20.50;36.40
41628;DHT22;27321;50.816;6.054;2023-06-04T10:51:08;20.60;35.20
41628;DHT22;27321;50.816;6.054;2023-06-04T10:54:22;20.60;34.00
41628;DHT22;27321;50.816;6.054;2023-06-04T10:57:25;20.60;34.10
41628;DHT22;27321;50.816;6.054;2023-06-04T11:03:40;20.80;36.70
41628;DHT22;27321;50.816;6.054;2023-06-04T11:06:42;20.80;37.50
41628;DHT22;27321;50.816;6.054;2023-06-04T11:09:48;20.90;35.60
41628;DHT22;27321;50.816;6.054;2023-06-04T11:12:50;20.90;35.70
41628;DHT22;27321;50.816;6.054;2023-06-04T11:15:51;20.90;35.70
41628;DHT22;27321;50.816;6.054;2023-06-04T11:18:56;21.00;36.90
41628;DHT22;27321;50.816;6.054;2023-06-04T11:21:58;21.00;36.10
41628;DHT22;27321;50.816;6.054;2023-06-04T11:24:59;21.00;35.70
41628;DHT22;27321;50.816;6.054;2023-06-04T11:28:00;21.00;36.10
41628;DHT22;27321;50.816;6.054;2023-06-04T11:31:03;21.00;36.80
41628;DHT22;27321;50.816;6.054;2023-06-04T11:34:06;21.10;36.80
41628;DHT22;27321;50.816;6.054;2023-06-04T11:37:10;21.00;37.40
41628;DHT22;27321;50.816;6.054;2023-06-04T11:40:18;21.10;36.60
41628;DHT22;27321;50.816;6.054;2023-06-04T11:43:19;21.20;37.50
41628;DHT22;27321;50.816;6.054;2023-06-04T11:46:21;21.20;36.10
41628;DHT22;27321;50.816;6.054;2023-06-04T11:49:22;21.30;36.20
41628;DHT22;27321;50.816;6.054;2023-06-04T11:52:23;21.40;36.40
41628;DHT22;27321;50.816;6.054;2023-06-04T11:55:25;21.40;34.80
41628;DHT22;27321;50.816;6.054;2023-06-04T11:58:26;21.50;35.60
41628;DHT22;27321;50.816;6.054;2023-06-04T12:01:27;21.50;35.70
41628;DHT22;27321;50.816;6.054;2023-06-04T12:04:31;21.50;35.30
41628;DHT22;27321;50.816;6.054;2023-06-04T12:07:32;21.50;35.70
41628;DHT22;27321;50.816;6.054;2023-06-04T12:10:41;21.60;34.80
41628;DHT22;27321;50.816;6.054;2023-06-04T12:13:43;21.60;35.40
41628;DHT22;27321;50.816;6.054;2023-06-04T12:16:57;21.60;35.60
41628;DHT22;27321;50.816;6.054;2023-06-04T12:19:58;21.60;35.30
41628;DHT22;27321;50.816;6.054;2023-06-04T12:23:00;21.70;36.80
41628;DHT22;27321;50.816;6.054;2023-06-04T12:26:01;21.70;36.20
41628;DHT22;27321;50.816;6.054;2023-06-04T12:29:12;21.80;35.90
41628;DHT22;27321;50.816;6.054;2023-06-04T12:32:14;21.80;36.00
41628;DHT22;27321;50.816;6.054;2023-06-04T12:35:16;21.80;35.80
41628;DHT22;27321;50.816;6.054;2023-06-04T12:38:17;21.80;36.20
41628;DHT22;27321;50.816;6.054;2023-06-04T12:41:18;21.90;35.50
41628;DHT22;27321;50.816;6.054;2023-06-04T12:44:19;22.00;36.40
41628;DHT22;27321;50.816;6.054;2023-06-04T12:47:21;22.00;34.90
41628;DHT22;27321;50.816;6.054;2023-06-04T12:50:22;22.10;36.30
41628;DHT22;27321;50.816;6.054;2023-06-04T12:53:23;22.10;35.40
41628;DHT22;27321;50.816;6.054;2023-06-04T12:56:26;22.20;35.40
41628;DHT22;27321;50.816;6.054;2023-06-04T12:59:27;22.20;36.20
41628;DHT22;27321;50.816;6.054;2023-06-04T13:02:28;22.30;35.00
41628;DHT22;27321;50.816;6.054;2023-06-04T13:05:30;22.30;35.30
41628;DHT22;27321;50.816;6.054;2023-06-04T13:08:31;22.30;34.80
41628;DHT22;27321;50.816;6.054;2023-06-04T13:11:32;22.30;34.50
41628;DHT22;27321;50.816;6.054;2023-06-04T13:14:33;22.30;35.60
41628;DHT22;27321;50.816;6.054;2023-06-04T13:17:34;22.30;34.50
41628;DHT22;27321;50.816;6.054;2023-06-04T13:20:42;22.30;35.80
41628;DHT22;27321;50.816;6.054;2023-06-04T13:23:43;22.40;35.80
41628;DHT22;27321;50.816;6.054;2023-06-04T13:26:44;22.50;33.70
41628;DHT22;27321;50.816;6.054;2023-06-04T13:29:45;22.50;34.50
41628;DHT22;27321;50.816;6.054;2023-06-04T13:32:46;22.50;36.30
41628;DHT22;27321;50.816;6.054;2023-06-04T13:35:47;22.50;34.30
41628;DHT22;27321;50.816;6.054;2023-06-04T13:38:48;22.50;34.50
41628;DHT22;27321;50.816;6.054;2023-06-04T13:41:49;22.50;34.70
41628;DHT22;27321;50.816;6.054;2023-06-04T13:44:50;22.50;36.20
41628;DHT22;27321;50.816;6.054;2023-06-04T13:47:51;22.60;36.00
41628;DHT22;27321;50.816;6.054;2023-06-04T13:50:51;22.60;34.10
41628;DHT22;27321;50.816;6.054;2023-06-04T13:53:52;22.60;34.10
41628;DHT22;27321;50.816;6.054;2023-06-04T13:56:54;22.60;34.10
41628;DHT22;27321;50.816;6.054;2023-06-04T13:59:55;22.60;34.80
41628;DHT22;27321;50.816;6.054;2023-06-04T14:02:56;22.60;34.20
41628;DHT22;27321;50.816;6.054;2023-06-04T14:05:57;22.60;34.10
41628;DHT22;27321;50.816;6.054;2023-06-04T14:08:59;22.60;34.70
41628;DHT22;27321;50.816;6.054;2023-06-04T14:12:00;22.60;34.80
41628;DHT22;27321;50.816;6.054;2023-06-04T14:15:01;22.60;34.50
41628;DHT22;27321;50.816;6.054;2023-06-04T14:18:03;22.60;34.60
41628;DHT22;27321;50.816;6.054;2023-06-04T14:21:04;22.70;34.00
41628;DHT22;27321;50.816;6.054;2023-06-04T14:24:05;22.80;34.30
41628;DHT22;27321;50.816;6.054;2023-06-04T14:27:06;22.80;35.00
41628;DHT22;27321;50.816;6.054;2023-06-04T14:30:08;22.70;34.00
41628;DHT22;27321;50.816;6.054;2023-06-04T14:33:09;22.80;34.70
41628;DHT22;27321;50.816;6.054;2023-06-04T14:36:10;22.80;34.80
41628;DHT22;27321;50.816;6.054;2023-06-04T14:39:11;22.80;34.20
41628;DHT22;27321;50.816;6.054;2023-06-04T14:42:13;22.80;34.20
41628;DHT22;27321;50.816;6.054;2023-06-04T14:45:14;22.80;34.20
41628;DHT22;27321;50.816;6.054;2023-06-04T14:48:15;22.90;33.30
41628;DHT22;27321;50.816;6.054;2023-06-04T14:51:16;22.80;32.60
41628;DHT22;27321;50.816;6.054;2023-06-04T14:54:17;22.80;34.00
41628;DHT22;27321;50.816;6.054;2023-06-04T14:57:18;22.80;33.30
41628;DHT22;27321;50.816;6.054;2023-06-04T15:00:19;22.80;33.70
41628;DHT22;27321;50.816;6.054;2023-06-04T15:03:20;22.80;33.10
41628;DHT22;27321;50.816;6.054;2023-06-04T15:06:21;22.90;33.30
41628;DHT22;27321;50.816;6.054;2023-06-04T15:09:22;22.90;33.00
41628;DHT22;27321;50.816;6.054;2023-06-04T15:12:24;22.90;33.60
41628;DHT22;27321;50.816;6.054;2023-06-04T15:15:25;22.90;32.70
41628;DHT22;27321;50.816;6.054;2023-06-04T15:18:27;23.00;32.40
41628;DHT22;27321;50.816;6.054;2023-06-04T15:21:28;23.00;32.20
41628;DHT22;27321;50.816;6.054;2023-06-04T15:24:28;23.00;32.90
41628;DHT22;27321;50.816;6.054;2023-06-04T15:27:30;23.00;33.00
41628;DHT22;27321;50.816;6.054;2023-06-04T15:30:31;23.00;31.90
41628;DHT22;27321;50.816;6.054;2023-06-04T15:33:33;23.10;32.40
41628;DHT22;27321;50.816;6.054;2023-06-04T15:36:34;23.10;31.50
41628;DHT22;27321;50.816;6.054;2023-06-04T15:39:36;23.20;32.10
41628;DHT22;27321;50.816;6.054;2023-06-04T15:42:37;23.30;32.30
41628;DHT22;27321;50.816;6.054;2023-06-04T15:45:38;23.40;31.80
41628;DHT22;27321;50.816;6.054;2023-06-04T15:48:39;23.40;31.60
41628;DHT22;27321;50.816;6.054;2023-06-04T15:51:40;23.50;31.80
41628;DHT22;27321;50.816;6.054;2023-06-04T15:54:41;23.50;31.40
41628;DHT22;27321;50.816;6.054;2023-06-04T15:57:42;23.50;30.30
41628;DHT22;27321;50.816;6.054;2023-06-04T16:00:43;23.60;30.50
41628;DHT22;27321;50.816;6.054;2023-06-04T16:03:44;23.70;31.40
41628;DHT22;27321;50.816;6.054;2023-06-04T16:06:45;23.80;31.10
41628;DHT22;27321;50.816;6.054;2023-06-04T16:09:47;23.80;29.80
41628;DHT22;27321;50.816;6.054;2023-06-04T16:12:48;23.90;30.90
41628;DHT22;27321;50.816;6.054;2023-06-04T16:15:49;24.00;30.70
41628;DHT22;27321;50.816;6.054;2023-06-04T16:18:50;24.00;29.90
41628;DHT22;27321;50.816;6.054;2023-06-04T16:21:51;24.00;28.80
41628;DHT22;27321;50.816;6.054;2023-06-04T16:24:52;24.10;29.30
41628;DHT22;27321;50.816;6.054;2023-06-04T16:27:53;24.10;29.30
41628;DHT22;27321;50.816;6.054;2023-06-04T16:30:54;24.20;29.90
41628;DHT22;27321;50.816;6.054;2023-06-04T16:33:55;24.30;29.70
41628;DHT22;27321;50.816;6.054;2023-06-04T16:36:56;24.30;28.70
41628;DHT22;27321;50.816;6.054;2023-06-04T16:39:57;24.30;28.60
41628;DHT22;27321;50.816;6.054;2023-06-04T16:42:58;24.20;29.10
41628;DHT22;27321;50.816;6.054;2023-06-04T16:45:59;24.40;29.40
41628;DHT22;27321;50.816;6.054;2023-06-04T16:49:00;24.40;28.70
41628;DHT22;27321;50.816;6.054;2023-06-04T16:52:01;24.50;29.40
41628;DHT22;27321;50.816;6.054;2023-06-04T16:55:05;24.50;29.50
41628;DHT22;27321;50.816;6.054;2023-06-04T16:58:06;24.50;28.40
41628;DHT22;27321;50.816;6.054;2023-06-04T17:01:07;24.40;28.60
41628;DHT22;27321;50.816;6.054;2023-06-04T17:04:10;24.30;29.10
41628;DHT22;27321;50.816;6.054;2023-06-04T17:07:11;24.20;28.80
41628;DHT22;27321;50.816;6.054;2023-06-04T17:10:12;24.10;28.80
41628;DHT22;27321;50.816;6.054;2023-06-04T17:13:13;24.10;28.40
41628;DHT22;27321;50.816;6.054;2023-06-04T17:16:14;24.10;28.50
41628;DHT22;27321;50.816;6.054;2023-06-04T17:19:16;24.10;29.00
41628;DHT22;27321;50.816;6.054;2023-06-04T17:22:19;24.10;28.60
41628;DHT22;27321;50.816;6.054;2023-06-04T17:25:20;24.20;29.10
41628;DHT22;27321;50.816;6.054;2023-06-04T17:28:21;24.20;29.20
41628;DHT22;27321;50.816;6.054;2023-06-04T17:31:22;24.30;28.70
41628;DHT22;27321;50.816;6.054;2023-06-04T17:34:23;24.40;29.10
41628;DHT22;27321;50.816;6.054;2023-06-04T17:37:24;24.40;29.10
41628;DHT22;27321;50.816;6.054;2023-06-04T17:40:25;24.30;29.00
41628;DHT22;27321;50.816;6.054;2023-06-04T17:43:27;24.30;29.60
41628;DHT22;27321;50.816;6.054;2023-06-04T17:46:28;24.20;29.80
41628;DHT22;27321;50.816;6.054;2023-06-04T17:49:29;24.10;29.70
41628;DHT22;27321;50.816;6.054;2023-06-04T17:52:30;23.90;30.10
41628;DHT22;27321;50.816;6.054;2023-06-04T17:55:31;23.90;30.90
41628;DHT22;27321;50.816;6.054;2023-06-04T17:58:32;23.70;30.60
41628;DHT22;27321;50.816;6.054;2023-06-04T18:01:34;23.60;31.10
41628;DHT22;27321;50.816;6.054;2023-06-04T18:04:38;23.60;31.00
41628;DHT22;27321;50.816;6.054;2023-06-04T18:07:39;23.60;31.00
41628;DHT22;27321;50.816;6.054;2023-06-04T18:10:40;23.50;30.60
41628;DHT22;27321;50.816;6.054;2023-06-04T18:13:42;23.40;30.60
41628;DHT22;27321;50.816;6.054;2023-06-04T18:16:43;23.30;30.80
41628;DHT22;27321;50.816;6.054;2023-06-04T18:19:44;23.20;30.90
41628;DHT22;27321;50.816;6.054;2023-06-04T18:22:45;23.20;31.30
41628;DHT22;27321;50.816;6.054;2023-06-04T18:25:46;23.10;31.30
41628;DHT22;27321;50.816;6.054;2023-06-04T18:28:47;23.00;31.30
41628;DHT22;27321;50.816;6.054;2023-06-04T18:31:48;23.00;31.80
41628;DHT22;27321;50.816;6.054;2023-06-04T18:34:49;22.90;31.80
41628;DHT22;27321;50.816;6.054;2023-06-04T18:37:50;22.80;31.70
41628;DHT22;27321;50.816;6.054;2023-06-04T18:40:51;22.80;32.00
41628;DHT22;27321;50.816;6.054;2023-06-04T18:43:52;22.80;32.00
41628;DHT22;27321;50.816;6.054;2023-06-04T18:46:53;22.70;32.10
41628;DHT22;27321;50.816;6.054;2023-06-04T18:49:55;22.60;32.30
41628;DHT22;27321;50.816;6.054;2023-06-04T18:52:56;22.50;32.40
41628;DHT22;27321;50.816;6.054;2023-06-04T18:56:01;22.50;32.70
41628;DHT22;27321;50.816;6.054;2023-06-04T18:59:02;22.40;32.90
41628;DHT22;27321;50.816;6.054;2023-06-04T19:02:04;22.30;33.00
41628;DHT22;27321;50.816;6.054;2023-06-04T19:05:05;22.30;33.30
41628;DHT22;27321;50.816;6.054;2023-06-04T19:08:07;22.20;33.20
41628;DHT22;27321;50.816;6.054;2023-06-04T19:11:08;22.20;33.40
41628;DHT22;27321;50.816;6.054;2023-06-04T19:14:09;22.10;33.80
41628;DHT22;27321;50.816;6.054;2023-06-04T19:17:16;22.10;34.00